sensor_id;sensor_type;location;lat;lon;timestamp;P1;durP1;ratioP1;P2;durP2;ratioP2
9972;SDS011;5027;53.560;10.062;2022-12-18T00:01:56;16.57;;;11.97;;
9972;SDS011;5027;53.560;10.062;2022-12-18T00:04:04;16.90;;;12.40;;
9972;SDS011;5027;53.560;10.062;2022-12-18T00:06:32;17.10;;;12.77;;
9972;SDS011;5027;53.560;10.062;2022-12-18T00:09:00;17.13;;;12.67;;
9972;SDS011;5027;53.560;10.062;2022-12-18T00:11:29;16.90;;;12.43;;
9972;SDS011;5027;53.560;10.062;2022-12-18T00:13:57;16.43;;;11.93;;
9972;SDS011;5027;53.560;10.062;2022-12-18T00:16:25;15.87;;;11.60;;
9972;SDS011;5027;53.560;10.062;2022-12-18T00:18:56;18.13;;;11.63;;
9972;SDS011;5027;53.560;10.062;2022-12-18T00:21:26;15.67;;;11.73;;
9972;SDS011;5027;53.560;10.062;2022-12-18T00:23:54;15.37;;;11.60;;
9972;SDS011;5027;53.560;10.062;2022-12-18T00:26:39;16.73;;;11.53;;
9972;SDS011;5027;53.560;10.062;2022-12-18T00:29:07;15.07;;;11.40;;
9972;SDS011;5027;53.560;10.062;2022-12-18T00:31:37;13.70;;;11.17;;
9972;SDS011;5027;53.560;10.062;2022-12-18T00:34:04;17.00;;;12.07;;
9972;SDS011;5027;53.560;10.062;2022-12-18T00:36:33;15.83;;;11.03;;
9972;SDS011;5027;53.560;10.062;2022-12-18T00:39:01;15.40;;;11.43;;
9972;SDS011;5027;53.560;10.062;2022-12-18T00:41:29;14.37;;;10.37;;
9972;SDS011;5027;53.560;10.062;2022-12-18T00:44:15;13.67;;;10.47;;
9972;SDS011;5027;53.560;10.062;2022-12-18T00:46:44;14.27;;;10.80;;
9972;SDS011;5027;53.560;10.062;2022-12-18T00:49:12;17.30;;;11.43;;
9972;SDS011;5027;53.560;10.062;2022-12-18T00:51:39;15.30;;;10.30;;
9972;SDS011;5027;53.560;10.062;2022-12-18T00:54:06;13.10;;;10.63;;
9972;SDS011;5027;53.560;10.062;2022-12-18T00:56:32;13.83;;;10.47;;
9972;SDS011;5027;53.560;10.062;2022-12-18T00:59:10;12.00;;;10.17;;
9972;SDS011;5027;53.560;10.062;2022-12-18T01:01:38;12.97;;;10.27;;
9972;SDS011;5027;53.560;10.062;2022-12-18T01:04:05;14.57;;;10.87;;
9972;SDS011;5027;53.560;10.062;2022-12-18T01:06:33;12.67;;;10.00;;
9972;SDS011;5027;53.560;10.062;2022-12-18T01:09:00;14.17;;;9.70;;
9972;SDS011;5027;53.560;10.062;2022-12-18T01:11:27;16.87;;;11.67;;
9972;SDS011;5027;53.560;10.062;2022-12-18T01:13:54;16.17;;;10.40;;
9972;SDS011;5027;53.560;10.062;2022-12-18T01:16:26;12.80;;;10.53;;
9972;SDS011;5027;53.560;10.062;2022-12-18T01:18:55;12.83;;;10.47;;
9972;SDS011;5027;53.560;10.062;2022-12-18T01:21:22;14.13;;;10.70;;
9972;SDS011;5027;53.560;10.062;2022-12-18T01:23:52;14.50;;;10.10;;
9972;SDS011;5027;53.560;10.062;2022-12-18T01:26:22;15.07;;;10.43;;
9972;SDS011;5027;53.560;10.062;2022-12-18T01:28:50;16.13;;;12.13;;
9972;SDS011;5027;53.560;10.062;2022-12-18T01:31:20;13.30;;;10.43;;
9972;SDS011;5027;53.560;10.062;2022-12-18T01:33:51;16.27;;;11.90;;
9972;SDS011;5027;53.560;10.062;2022-12-18T01:36:20;14.07;;;10.63;;
9972;SDS011;5027;53.560;10.062;2022-12-18T01:38:49;11.10;;;9.37;;
9972;SDS011;5027;53.560;10.062;2022-12-18T01:41:18;11.63;;;9.70;;
9972;SDS011;5027;53.560;10.062;2022-12-18T01:49:49;10.93;;;9.00;;
9972;SDS011;5027;53.560;10.062;2022-12-18T01:52:17;13.50;;;9.83;;
9972;SDS011;5027;53.560;10.062;2022-12-18T01:54:44;13.40;;;10.80;;
9972;SDS011;5027;53.560;10.062;2022-12-18T01:57:12;16.33;;;10.37;;
9972;SDS011;5027;53.560;10.062;2022-12-18T01:59:39;16.53;;;10.70;;
9972;SDS011;5027;53.560;10.062;2022-12-18T02:02:09;11.67;;;9.83;;
9972;SDS011;5027;53.560;10.062;2022-12-18T02:04:36;11.37;;;9.23;;
9972;SDS011;5027;53.560;10.062;2022-12-18T02:09:48;15.07;;;9.27;;
9972;SDS011;5027;53.560;10.062;2022-12-18T02:12:22;12.30;;;9.33;;
9972;SDS011;5027;53.560;10.062;2022-12-18T02:15:07;16.87;;;12.37;;
9972;SDS011;5027;53.560;10.062;2022-12-18T02:17:48;12.83;;;10.20;;
9972;SDS011;5027;53.560;10.062;2022-12-18T02:23:23;12.47;;;8.77;;
9972;SDS011;5027;53.560;10.062;2022-12-18T02:28:53;13.80;;;9.87;;
9972;SDS011;5027;53.560;10.062;2022-12-18T02:31:28;14.20;;;9.13;;
9972;SDS011;5027;53.560;10.062;2022-12-18T02:34:00;10.73;;;8.00;;
9972;SDS011;5027;53.560;10.062;2022-12-18T02:36:36;11.30;;;8.63;;
9972;SDS011;5027;53.560;10.062;2022-12-18T02:39:07;12.57;;;9.10;;
9972;SDS011;5027;53.560;10.062;2022-12-18T02:41:42;11.17;;;9.07;;
9972;SDS011;5027;53.560;10.062;2022-12-18T02:44:10;11.83;;;9.47;;
9972;SDS011;5027;53.560;10.062;2022-12-18T02:47:12;14.40;;;9.33;;
9972;SDS011;5027;53.560;10.062;2022-12-18T02:49:40;11.80;;;8.93;;
9972;SDS011;5027;53.560;10.062;2022-12-18T02:57:31;13.50;;;9.10;;
9972;SDS011;5027;53.560;10.062;2022-12-18T03:00:07;13.40;;;8.77;;
9972;SDS011;5027;53.560;10.062;2022-12-18T03:05:20;11.97;;;8.73;;
9972;SDS011;5027;53.560;10.062;2022-12-18T03:08:06;13.43;;;9.13;;
9972;SDS011;5027;53.560;10.062;2022-12-18T03:10:42;13.37;;;9.10;;
9972;SDS011;5027;53.560;10.062;2022-12-18T03:13:16;11.47;;;7.97;;
9972;SDS011;5027;53.560;10.062;2022-12-18T03:16:08;10.20;;;8.27;;
9972;SDS011;5027;53.560;10.062;2022-12-18T03:18:46;11.67;;;7.90;;
9972;SDS011;5027;53.560;10.062;2022-12-18T03:21:26;11.03;;;8.40;;
9972;SDS011;5027;53.560;10.062;2022-12-18T03:23:57;11.77;;;7.63;;
9972;SDS011;5027;53.560;10.062;2022-12-18T03:26:26;11.30;;;8.13;;
9972;SDS011;5027;53.560;10.062;2022-12-18T03:29:08;9.43;;;7.37;;
9972;SDS011;5027;53.560;10.062;2022-12-18T03:31:42;10.67;;;7.57;;
9972;SDS011;5027;53.560;10.062;2022-12-18T03:34:16;10.83;;;7.77;;
9972;SDS011;5027;53.560;10.062;2022-12-18T03:36:48;13.70;;;8.03;;
9972;SDS011;5027;53.560;10.062;2022-12-18T03:39:15;9.13;;;7.67;;
9972;SDS011;5027;53.560;10.062;2022-12-18T03:41:53;11.73;;;7.90;;
9972;SDS011;5027;53.560;10.062;2022-12-18T03:44:33;10.03;;;7.50;;
9972;SDS011;5027;53.560;10.062;2022-12-18T03:49:51;11.63;;;8.80;;
9972;SDS011;5027;53.560;10.062;2022-12-18T03:52:54;9.33;;;7.47;;
9972;SDS011;5027;53.560;10.062;2022-12-18T03:55:27;10.93;;;7.80;;
9972;SDS011;5027;53.560;10.062;2022-12-18T03:58:01;10.73;;;7.63;;
9972;SDS011;5027;53.560;10.062;2022-12-18T04:00:44;9.87;;;8.07;;
9972;SDS011;5027;53.560;10.062;2022-12-18T04:03:11;11.60;;;8.37;;
9972;SDS011;5027;53.560;10.062;2022-12-18T04:05:46;9.90;;;7.70;;
9972;SDS011;5027;53.560;10.062;2022-12-18T04:08:18;10.77;;;7.80;;
9972;SDS011;5027;53.560;10.062;2022-12-18T04:10:55;13.03;;;7.83;;
9972;SDS011;5027;53.560;10.062;2022-12-18T04:13:23;11.53;;;7.73;;
9972;SDS011;5027;53.560;10.062;2022-12-18T04:15:51;8.90;;;7.20;;
9972;SDS011;5027;53.560;10.062;2022-12-18T04:18:21;11.40;;;7.63;;
9972;SDS011;5027;53.560;10.062;2022-12-18T04:20:48;10.07;;;7.80;;
9972;SDS011;5027;53.560;10.062;2022-12-18T04:23:16;9.20;;;7.53;;
9972;SDS011;5027;53.560;10.062;2022-12-18T04:25:43;10.53;;;7.20;;
9972;SDS011;5027;53.560;10.062;2022-12-18T04:28:15;9.03;;;7.03;;
9972;SDS011;5027;53.560;10.062;2022-12-18T04:30:42;10.00;;;7.63;;
9972;SDS011;5027;53.560;10.062;2022-12-18T04:33:12;9.07;;;7.30;;
9972;SDS011;5027;53.560;10.062;2022-12-18T04:35:42;10.37;;;7.77;;
9972;SDS011;5027;53.560;10.062;2022-12-18T04:38:09;12.60;;;7.20;;
9972;SDS011;5027;53.560;10.062;2022-12-18T04:40:37;9.43;;;8.17;;
9972;SDS011;5027;53.560;10.062;2022-12-18T04:43:13;12.30;;;10.03;;
9972;SDS011;5027;53.560;10.062;2022-12-18T04:45:40;12.50;;;8.97;;
9972;SDS011;5027;53.560;10.062;2022-12-18T04:48:06;12.00;;;8.67;;
9972;SDS011;5027;53.560;10.062;2022-12-18T04:50:33;8.63;;;7.57;;
9972;SDS011;5027;53.560;10.062;2022-12-18T04:53:00;9.83;;;7.47;;
9972;SDS011;5027;53.560;10.062;2022-12-18T04:55:26;11.97;;;8.23;;
9972;SDS011;5027;53.560;10.062;2022-12-18T04:57:53;10.10;;;8.27;;
9972;SDS011;5027;53.560;10.062;2022-12-18T05:00:20;11.10;;;8.07;;
9972;SDS011;5027;53.560;10.062;2022-12-18T05:02:48;9.23;;;7.10;;
9972;SDS011;5027;53.560;10.062;2022-12-18T05:05:14;10.23;;;7.53;;
9972;SDS011;5027;53.560;10.062;2022-12-18T05:07:41;11.07;;;8.53;;
9972;SDS011;5027;53.560;10.062;2022-12-18T05:10:08;10.17;;;7.80;;
9972;SDS011;5027;53.560;10.062;2022-12-18T05:12:35;10.33;;;7.23;;
9972;SDS011;5027;53.560;10.062;2022-12-18T05:15:22;12.23;;;7.80;;
9972;SDS011;5027;53.560;10.062;2022-12-18T05:17:48;9.70;;;7.50;;
9972;SDS011;5027;53.560;10.062;2022-12-18T05:20:15;11.67;;;7.93;;
9972;SDS011;5027;53.560;10.062;2022-12-18T05:22:42;10.30;;;8.13;;
9972;SDS011;5027;53.560;10.062;2022-12-18T05:25:08;10.13;;;7.53;;
9972;SDS011;5027;53.560;10.062;2022-12-18T05:27:35;9.67;;;7.40;;
9972;SDS011;5027;53.560;10.062;2022-12-18T05:30:05;11.93;;;9.33;;
9972;SDS011;5027;53.560;10.062;2022-12-18T05:32:32;16.13;;;12.03;;
9972;SDS011;5027;53.560;10.062;2022-12-18T05:34:59;10.70;;;8.47;;
9972;SDS011;5027;53.560;10.062;2022-12-18T05:37:25;11.87;;;8.40;;
9972;SDS011;5027;53.560;10.062;2022-12-18T05:39:52;9.80;;;8.00;;
9972;SDS011;5027;53.560;10.062;2022-12-18T05:42:18;10.03;;;7.83;;
9972;SDS011;5027;53.560;10.062;2022-12-18T05:44:45;10.77;;;7.83;;
9972;SDS011;5027;53.560;10.062;2022-12-18T05:47:12;11.33;;;8.10;;
9972;SDS011;5027;53.560;10.062;2022-12-18T05:49:38;12.23;;;8.80;;
9972;SDS011;5027;53.560;10.062;2022-12-18T05:52:05;10.30;;;8.13;;
9972;SDS011;5027;53.560;10.062;2022-12-18T05:54:32;11.07;;;8.40;;
9972;SDS011;5027;53.560;10.062;2022-12-18T05:56:59;12.50;;;8.90;;
9972;SDS011;5027;53.560;10.062;2022-12-18T05:59:25;12.67;;;8.60;;
9972;SDS011;5027;53.560;10.062;2022-12-18T06:01:52;11.67;;;8.53;;
9972;SDS011;5027;53.560;10.062;2022-12-18T06:04:19;11.13;;;8.70;;
9972;SDS011;5027;53.560;10.062;2022-12-18T06:06:45;10.23;;;8.37;;
9972;SDS011;5027;53.560;10.062;2022-12-18T06:09:12;11.47;;;8.90;;
9972;SDS011;5027;53.560;10.062;2022-12-18T06:11:38;12.87;;;9.50;;
9972;SDS011;5027;53.560;10.062;2022-12-18T06:14:05;11.43;;;8.97;;
9972;SDS011;5027;53.560;10.062;2022-12-18T06:16:35;10.57;;;8.00;;
9972;SDS011;5027;53.560;10.062;2022-12-18T06:19:03;13.37;;;9.57;;
9972;SDS011;5027;53.560;10.062;2022-12-18T06:21:31;10.87;;;8.67;;
9972;SDS011;5027;53.560;10.062;2022-12-18T06:23:59;15.57;;;10.90;;
9972;SDS011;5027;53.560;10.062;2022-12-18T06:26:26;12.87;;;9.50;;
9972;SDS011;5027;53.560;10.062;2022-12-18T06:28:53;12.57;;;9.23;;
9972;SDS011;5027;53.560;10.062;2022-12-18T06:31:20;11.47;;;9.17;;
9972;SDS011;5027;53.560;10.062;2022-12-18T06:33:47;11.20;;;8.90;;
9972;SDS011;5027;53.560;10.062;2022-12-18T06:36:14;12.73;;;9.40;;
9972;SDS011;5027;53.560;10.062;2022-12-18T06:38:41;10.63;;;9.00;;
9972;SDS011;5027;53.560;10.062;2022-12-18T06:41:09;10.73;;;8.50;;
9972;SDS011;5027;53.560;10.062;2022-12-18T06:43:37;10.17;;;8.63;;
9972;SDS011;5027;53.560;10.062;2022-12-18T06:46:05;9.77;;;8.57;;
9972;SDS011;5027;53.560;10.062;2022-12-18T06:48:32;12.37;;;8.90;;
9972;SDS011;5027;53.560;10.062;2022-12-18T06:50:59;11.07;;;9.27;;
9972;SDS011;5027;53.560;10.062;2022-12-18T06:53:26;11.37;;;9.03;;
9972;SDS011;5027;53.560;10.062;2022-12-18T06:55:52;11.87;;;9.27;;
9972;SDS011;5027;53.560;10.062;2022-12-18T06:58:33;12.10;;;9.57;;
9972;SDS011;5027;53.560;10.062;2022-12-18T07:01:00;11.17;;;9.57;;
9972;SDS011;5027;53.560;10.062;2022-12-18T07:03:27;12.90;;;9.37;;
9972;SDS011;5027;53.560;10.062;2022-12-18T07:05:54;11.43;;;9.83;;
9972;SDS011;5027;53.560;10.062;2022-12-18T07:08:20;11.23;;;9.00;;
9972;SDS011;5027;53.560;10.062;2022-12-18T07:10:47;10.67;;;9.20;;
9972;SDS011;5027;53.560;10.062;2022-12-18T07:13:21;12.43;;;9.87;;
9972;SDS011;5027;53.560;10.062;2022-12-18T07:15:48;11.37;;;9.60;;
9972;SDS011;5027;53.560;10.062;2022-12-18T07:18:15;14.67;;;9.70;;
9972;SDS011;5027;53.560;10.062;2022-12-18T07:20:42;13.07;;;9.83;;
9972;SDS011;5027;53.560;10.062;2022-12-18T07:23:08;11.77;;;9.30;;
9972;SDS011;5027;53.560;10.062;2022-12-18T07:25:35;14.27;;;9.70;;
9972;SDS011;5027;53.560;10.062;2022-12-18T07:28:03;14.53;;;10.13;;
9972;SDS011;5027;53.560;10.062;2022-12-18T07:30:30;12.37;;;10.03;;
9972;SDS011;5027;53.560;10.062;2022-12-18T07:32:57;13.70;;;10.37;;
9972;SDS011;5027;53.560;10.062;2022-12-18T07:35:24;14.50;;;10.07;;
9972;SDS011;5027;53.560;10.062;2022-12-18T07:37:50;13.40;;;9.60;;
9972;SDS011;5027;53.560;10.062;2022-12-18T07:40:17;12.77;;;9.40;;
9972;SDS011;5027;53.560;10.062;2022-12-18T07:42:44;13.27;;;10.37;;
9972;SDS011;5027;53.560;10.062;2022-12-18T07:45:10;12.67;;;9.57;;
9972;SDS011;5027;53.560;10.062;2022-12-18T07:47:37;15.03;;;10.40;;
9972;SDS011;5027;53.560;10.062;2022-12-18T07:50:04;16.23;;;10.43;;
9972;SDS011;5027;53.560;10.062;2022-12-18T07:52:31;13.73;;;10.53;;
9972;SDS011;5027;53.560;10.062;2022-12-18T07:54:59;13.97;;;10.80;;
9972;SDS011;5027;53.560;10.062;2022-12-18T07:57:25;14.30;;;10.53;;
9972;SDS011;5027;53.560;10.062;2022-12-18T08:00:12;11.87;;;10.17;;
9972;SDS011;5027;53.560;10.062;2022-12-18T08:02:39;14.30;;;10.53;;
9972;SDS011;5027;53.560;10.062;2022-12-18T08:05:07;14.77;;;11.13;;
9972;SDS011;5027;53.560;10.062;2022-12-18T08:07:34;13.87;;;11.17;;
9972;SDS011;5027;53.560;10.062;2022-12-18T08:10:01;14.40;;;11.13;;
9972;SDS011;5027;53.560;10.062;2022-12-18T08:12:29;15.53;;;10.47;;
9972;SDS011;5027;53.560;10.062;2022-12-18T08:14:55;12.37;;;10.73;;
9972;SDS011;5027;53.560;10.062;2022-12-18T08:17:22;14.50;;;11.13;;
9972;SDS011;5027;53.560;10.062;2022-12-18T08:19:49;12.83;;;10.53;;
9972;SDS011;5027;53.560;10.062;2022-12-18T08:22:15;15.77;;;11.57;;
9972;SDS011;5027;53.560;10.062;2022-12-18T08:24:42;12.07;;;10.27;;
9972;SDS011;5027;53.560;10.062;2022-12-18T08:27:09;14.43;;;11.47;;
9972;SDS011;5027;53.560;10.062;2022-12-18T08:29:54;16.93;;;12.07;;
9972;SDS011;5027;53.560;10.062;2022-12-18T08:32:21;14.50;;;10.93;;
9972;SDS011;5027;53.560;10.062;2022-12-18T08:34:48;14.27;;;11.33;;
9972;SDS011;5027;53.560;10.062;2022-12-18T08:37:15;13.10;;;10.93;;
9972;SDS011;5027;53.560;10.062;2022-12-18T08:39:41;16.40;;;11.60;;
9972;SDS011;5027;53.560;10.062;2022-12-18T08:42:08;15.53;;;10.43;;
9972;SDS011;5027;53.560;10.062;2022-12-18T08:44:54;14.73;;;11.67;;
9972;SDS011;5027;53.560;10.062;2022-12-18T08:47:21;15.10;;;11.37;;
9972;SDS011;5027;53.560;10.062;2022-12-18T08:49:47;15.90;;;11.40;;
9972;SDS011;5027;53.560;10.062;2022-12-18T08:52:14;13.83;;;11.63;;
9972;SDS011;5027;53.560;10.062;2022-12-18T08:54:41;16.90;;;11.80;;
9972;SDS011;5027;53.560;10.062;2022-12-18T08:57:07;18.00;;;12.80;;
9972;SDS011;5027;53.560;10.062;2022-12-18T08:59:34;14.77;;;11.07;;
9972;SDS011;5027;53.560;10.062;2022-12-18T09:02:01;15.23;;;11.97;;
9972;SDS011;5027;53.560;10.062;2022-12-18T09:04:30;16.30;;;13.67;;
9972;SDS011;5027;53.560;10.062;2022-12-18T09:06:57;14.37;;;10.87;;
9972;SDS011;5027;53.560;10.062;2022-12-18T09:09:23;16.47;;;11.60;;
9972;SDS011;5027;53.560;10.062;2022-12-18T09:11:50;16.90;;;11.13;;
9972;SDS011;5027;53.560;10.062;2022-12-18T09:14:18;14.90;;;11.40;;
9972;SDS011;5027;53.560;10.062;2022-12-18T09:16:45;15.80;;;12.10;;
9972;SDS011;5027;53.560;10.062;2022-12-18T09:19:12;18.90;;;12.00;;
9972;SDS011;5027;53.560;10.062;2022-12-18T09:21:38;14.43;;;11.40;;
9972;SDS011;5027;53.560;10.062;2022-12-18T09:24:13;13.67;;;11.00;;
9972;SDS011;5027;53.560;10.062;2022-12-18T09:26:40;14.60;;;11.13;;
9972;SDS011;5027;53.560;10.062;2022-12-18T09:29:12;13.53;;;10.70;;
9972;SDS011;5027;53.560;10.062;2022-12-18T09:31:41;14.17;;;10.97;;
9972;SDS011;5027;53.560;10.062;2022-12-18T09:34:08;14.80;;;11.47;;
9972;SDS011;5027;53.560;10.062;2022-12-18T09:36:34;13.23;;;11.50;;
9972;SDS011;5027;53.560;10.062;2022-12-18T09:39:02;15.33;;;12.13;;
9972;SDS011;5027;53.560;10.062;2022-12-18T09:41:53;13.53;;;11.17;;
9972;SDS011;5027;53.560;10.062;2022-12-18T09:44:32;14.77;;;11.10;;
9972;SDS011;5027;53.560;10.062;2022-12-18T09:50:06;14.87;;;11.63;;
9972;SDS011;5027;53.560;10.062;2022-12-18T09:53:05;13.57;;;10.93;;
9972;SDS011;5027;53.560;10.062;2022-12-18T09:55:40;13.40;;;10.97;;
9972;SDS011;5027;53.560;10.062;2022-12-18T10:00:36;13.53;;;10.53;;
9972;SDS011;5027;53.560;10.062;2022-12-18T10:03:03;16.10;;;12.10;;
9972;SDS011;5027;53.560;10.062;2022-12-18T10:05:46;13.43;;;10.60;;
9972;SDS011;5027;53.560;10.062;2022-12-18T10:11:32;15.03;;;11.50;;
9972;SDS011;5027;53.560;10.062;2022-12-18T10:14:23;17.07;;;12.97;;
9972;SDS011;5027;53.560;10.062;2022-12-18T10:19:33;17.13;;;12.17;;
9972;SDS011;5027;53.560;10.062;2022-12-18T10:24:54;15.97;;;11.80;;
9972;SDS011;5027;53.560;10.062;2022-12-18T10:27:24;18.60;;;11.33;;
9972;SDS011;5027;53.560;10.062;2022-12-18T10:29:52;13.63;;;11.30;;
9972;SDS011;5027;53.560;10.062;2022-12-18T10:32:22;16.33;;;11.90;;
9972;SDS011;5027;53.560;10.062;2022-12-18T10:34:51;15.13;;;10.67;;
9972;SDS011;5027;53.560;10.062;2022-12-18T10:37:27;14.10;;;11.50;;
9972;SDS011;5027;53.560;10.062;2022-12-18T10:40:06;15.87;;;11.13;;
9972;SDS011;5027;53.560;10.062;2022-12-18T10:42:42;14.93;;;11.80;;
9972;SDS011;5027;53.560;10.062;2022-12-18T10:45:15;15.63;;;11.73;;
9972;SDS011;5027;53.560;10.062;2022-12-18T10:47:44;17.80;;;12.57;;
9972;SDS011;5027;53.560;10.062;2022-12-18T10:50:22;15.80;;;12.00;;
9972;SDS011;5027;53.560;10.062;2022-12-18T10:53:24;15.00;;;11.93;;
9972;SDS011;5027;53.560;10.062;2022-12-18T10:55:54;18.70;;;14.97;;
9972;SDS011;5027;53.560;10.062;2022-12-18T10:58:37;17.13;;;13.60;;
9972;SDS011;5027;53.560;10.062;2022-12-18T11:01:11;17.70;;;13.67;;
9972;SDS011;5027;53.560;10.062;2022-12-18T11:06:27;16.13;;;12.70;;
9972;SDS011;5027;53.560;10.062;2022-12-18T11:09:02;14.47;;;11.30;;
9972;SDS011;5027;53.560;10.062;2022-12-18T11:11:42;16.43;;;11.90;;
9972;SDS011;5027;53.560;10.062;2022-12-18T11:14:24;17.87;;;12.27;;
9972;SDS011;5027;53.560;10.062;2022-12-18T11:16:55;15.57;;;13.27;;
9972;SDS011;5027;53.560;10.062;2022-12-18T11:19:52;16.23;;;12.20;;
9972;SDS011;5027;53.560;10.062;2022-12-18T11:22:39;17.40;;;12.73;;
9972;SDS011;5027;53.560;10.062;2022-12-18T11:28:05;14.40;;;10.80;;
9972;SDS011;5027;53.560;10.062;2022-12-18T11:31:08;15.80;;;12.93;;
9972;SDS011;5027;53.560;10.062;2022-12-18T11:33:40;15.23;;;12.10;;
9972;SDS011;5027;53.560;10.062;2022-12-18T11:36:34;16.27;;;13.57;;
9972;SDS011;5027;53.560;10.062;2022-12-18T11:39:08;16.63;;;12.70;;
9972;SDS011;5027;53.560;10.062;2022-12-18T11:42:24;16.27;;;12.60;;
9972;SDS011;5027;53.560;10.062;2022-12-18T11:44:51;16.33;;;13.47;;
9972;SDS011;5027;53.560;10.062;2022-12-18T11:47:28;15.00;;;13.00;;
9972;SDS011;5027;53.560;10.062;2022-12-18T11:50:19;17.13;;;13.10;;
9972;SDS011;5027;53.560;10.062;2022-12-18T11:52:49;16.43;;;13.07;;
9972;SDS011;5027;53.560;10.062;2022-12-18T11:55:28;16.93;;;13.13;;
9972;SDS011;5027;53.560;10.062;2022-12-18T12:01:10;20.23;;;13.27;;
9972;SDS011;5027;53.560;10.062;2022-12-18T12:03:48;15.83;;;13.10;;
9972;SDS011;5027;53.560;10.062;2022-12-18T12:08:53;16.90;;;13.57;;
9972;SDS011;5027;53.560;10.062;2022-12-18T12:11:47;17.63;;;13.03;;
9972;SDS011;5027;53.560;10.062;2022-12-18T12:14:30;15.37;;;12.57;;
9972;SDS011;5027;53.560;10.062;2022-12-18T12:17:25;16.70;;;13.03;;
9972;SDS011;5027;53.560;10.062;2022-12-18T12:23:12;19.27;;;15.07;;
9972;SDS011;5027;53.560;10.062;2022-12-18T12:25:43;18.60;;;15.00;;
9972;SDS011;5027;53.560;10.062;2022-12-18T12:34:07;15.93;;;12.83;;
9972;SDS011;5027;53.560;10.062;2022-12-18T12:36:46;17.07;;;13.40;;
9972;SDS011;5027;53.560;10.062;2022-12-18T12:39:17;20.40;;;13.27;;
9972;SDS011;5027;53.560;10.062;2022-12-18T12:41:46;17.93;;;13.50;;
9972;SDS011;5027;53.560;10.062;2022-12-18T12:44:37;16.77;;;12.70;;
9972;SDS011;5027;53.560;10.062;2022-12-18T12:47:12;19.73;;;14.60;;
9972;SDS011;5027;53.560;10.062;2022-12-18T12:49:47;17.90;;;13.37;;
9972;SDS011;5027;53.560;10.062;2022-12-18T12:52:31;18.20;;;14.57;;
9972;SDS011;5027;53.560;10.062;2022-12-18T12:55:04;16.33;;;13.53;;
9972;SDS011;5027;53.560;10.062;2022-12-18T12:57:40;18.03;;;13.80;;
9972;SDS011;5027;53.560;10.062;2022-12-18T13:00:13;19.97;;;14.90;;
9972;SDS011;5027;53.560;10.062;2022-12-18T13:03:01;20.00;;;14.00;;
9972;SDS011;5027;53.560;10.062;2022-12-18T13:05:39;21.13;;;14.37;;
9972;SDS011;5027;53.560;10.062;2022-12-18T13:08:24;20.77;;;14.83;;
9972;SDS011;5027;53.560;10.062;2022-12-18T13:11:11;20.30;;;13.50;;
9972;SDS011;5027;53.560;10.062;2022-12-18T13:14:49;17.63;;;13.73;;
9972;SDS011;5027;53.560;10.062;2022-12-18T13:18:37;17.00;;;13.40;;
9972;SDS011;5027;53.560;10.062;2022-12-18T13:21:32;19.47;;;14.37;;
9972;SDS011;5027;53.560;10.062;2022-12-18T13:24:26;21.80;;;14.43;;
9972;SDS011;5027;53.560;10.062;2022-12-18T13:26:56;19.63;;;14.00;;
9972;SDS011;5027;53.560;10.062;2022-12-18T13:29:43;18.87;;;15.00;;
9972;SDS011;5027;53.560;10.062;2022-12-18T13:32:20;19.47;;;14.77;;
9972;SDS011;5027;53.560;10.062;2022-12-18T13:37:51;19.00;;;14.83;;
9972;SDS011;5027;53.560;10.062;2022-12-18T13:43:39;19.37;;;15.00;;
9972;SDS011;5027;53.560;10.062;2022-12-18T13:49:00;20.43;;;15.50;;
9972;SDS011;5027;53.560;10.062;2022-12-18T13:51:29;22.60;;;15.47;;
9972;SDS011;5027;53.560;10.062;2022-12-18T13:53:58;20.50;;;15.60;;
9972;SDS011;5027;53.560;10.062;2022-12-18T13:56:29;19.93;;;14.90;;
9972;SDS011;5027;53.560;10.062;2022-12-18T13:59:15;19.73;;;15.17;;
9972;SDS011;5027;53.560;10.062;2022-12-18T14:04:28;19.80;;;14.50;;
9972;SDS011;5027;53.560;10.062;2022-12-18T14:07:04;21.10;;;15.43;;
9972;SDS011;5027;53.560;10.062;2022-12-18T14:09:37;23.17;;;17.00;;
9972;SDS011;5027;53.560;10.062;2022-12-18T14:12:14;21.43;;;15.57;;
9972;SDS011;5027;53.560;10.062;2022-12-18T14:15:03;20.40;;;15.60;;
9972;SDS011;5027;53.560;10.062;2022-12-18T14:17:37;22.43;;;16.57;;
9972;SDS011;5027;53.560;10.062;2022-12-18T14:20:12;20.97;;;16.13;;
9972;SDS011;5027;53.560;10.062;2022-12-18T14:22:44;20.97;;;15.47;;
9972;SDS011;5027;53.560;10.062;2022-12-18T14:28:13;22.20;;;17.03;;
9972;SDS011;5027;53.560;10.062;2022-12-18T14:30:34;22.83;;;16.97;;
9972;SDS011;5027;53.560;10.062;2022-12-18T14:33:04;25.40;;;17.07;;
9972;SDS011;5027;53.560;10.062;2022-12-18T14:35:35;24.90;;;17.13;;
9972;SDS011;5027;53.560;10.062;2022-12-18T14:40:54;25.03;;;17.23;;
9972;SDS011;5027;53.560;10.062;2022-12-18T14:43:26;26.77;;;17.27;;
9972;SDS011;5027;53.560;10.062;2022-12-18T14:45:54;24.03;;;17.50;;
9972;SDS011;5027;53.560;10.062;2022-12-18T14:48:46;24.00;;;17.47;;
9972;SDS011;5027;53.560;10.062;2022-12-18T14:51:20;26.03;;;17.70;;
9972;SDS011;5027;53.560;10.062;2022-12-18T14:53:58;25.67;;;17.80;;
9972;SDS011;5027;53.560;10.062;2022-12-18T14:56:36;22.87;;;16.40;;
9972;SDS011;5027;53.560;10.062;2022-12-18T14:59:13;22.60;;;16.97;;
9972;SDS011;5027;53.560;10.062;2022-12-18T15:04:38;26.83;;;17.77;;
9972;SDS011;5027;53.560;10.062;2022-12-18T15:07:14;24.73;;;17.83;;
9972;SDS011;5027;53.560;10.062;2022-12-18T15:12:42;26.03;;;18.50;;
9972;SDS011;5027;53.560;10.062;2022-12-18T15:18:18;29.67;;;18.67;;
9972;SDS011;5027;53.560;10.062;2022-12-18T15:26:04;24.17;;;17.20;;
9972;SDS011;5027;53.560;10.062;2022-12-18T15:36:29;26.07;;;17.03;;
9972;SDS011;5027;53.560;10.062;2022-12-18T15:38:56;25.40;;;18.07;;
9972;SDS011;5027;53.560;10.062;2022-12-18T15:41:31;24.97;;;17.30;;
9972;SDS011;5027;53.560;10.062;2022-12-18T15:44:01;25.17;;;17.70;;
9972;SDS011;5027;53.560;10.062;2022-12-18T15:46:29;27.13;;;18.60;;
9972;SDS011;5027;53.560;10.062;2022-12-18T15:48:57;25.63;;;17.93;;
9972;SDS011;5027;53.560;10.062;2022-12-18T15:54:05;26.50;;;17.53;;
9972;SDS011;5027;53.560;10.062;2022-12-18T15:56:35;24.20;;;16.67;;
9972;SDS011;5027;53.560;10.062;2022-12-18T15:59:23;25.53;;;17.83;;
9972;SDS011;5027;53.560;10.062;2022-12-18T16:01:50;27.07;;;17.03;;
9972;SDS011;5027;53.560;10.062;2022-12-18T16:04:21;24.77;;;17.23;;
9972;SDS011;5027;53.560;10.062;2022-12-18T16:06:48;27.97;;;17.70;;
9972;SDS011;5027;53.560;10.062;2022-12-18T16:09:36;24.80;;;17.37;;
9972;SDS011;5027;53.560;10.062;2022-12-18T16:12:03;31.13;;;19.73;;
9972;SDS011;5027;53.560;10.062;2022-12-18T16:14:31;27.03;;;17.50;;
9972;SDS011;5027;53.560;10.062;2022-12-18T16:16:59;26.00;;;17.13;;
9972;SDS011;5027;53.560;10.062;2022-12-18T16:19:31;28.33;;;18.40;;
9972;SDS011;5027;53.560;10.062;2022-12-18T16:21:58;24.00;;;16.90;;
9972;SDS011;5027;53.560;10.062;2022-12-18T16:24:29;25.90;;;17.77;;
9972;SDS011;5027;53.560;10.062;2022-12-18T16:26:58;29.87;;;20.37;;
9972;SDS011;5027;53.560;10.062;2022-12-18T16:29:26;26.97;;;18.00;;
9972;SDS011;5027;53.560;10.062;2022-12-18T16:31:55;23.47;;;17.27;;
9972;SDS011;5027;53.560;10.062;2022-12-18T16:34:29;24.63;;;16.77;;
9972;SDS011;5027;53.560;10.062;2022-12-18T16:37:03;25.97;;;18.37;;
9972;SDS011;5027;53.560;10.062;2022-12-18T16:39:32;22.60;;;15.63;;
9972;SDS011;5027;53.560;10.062;2022-12-18T16:42:01;23.47;;;16.70;;
9972;SDS011;5027;53.560;10.062;2022-12-18T16:44:31;26.67;;;17.50;;
9972;SDS011;5027;53.560;10.062;2022-12-18T16:47:02;26.77;;;18.50;;
9972;SDS011;5027;53.560;10.062;2022-12-18T16:49:30;24.90;;;17.80;;
9972;SDS011;5027;53.560;10.062;2022-12-18T16:51:56;24.70;;;18.50;;
9972;SDS011;5027;53.560;10.062;2022-12-18T16:54:26;25.53;;;17.00;;